Winton, Minnesota
Current Conditions -  °F | °C
As of 5:13 AM on Wednesday 22 Oct 2014 (Local Time) from KELO Reporting Station
Clear Clear  
Wind Chill: 34°   Ceiling: Unl
Heat Index: 39°   Visibility: 10mi
Dew Point: 36°   Wind: 8mph
Humidity: 87%   Direction: 170°S
Pressure: 30.17"   Gusts: NA
Location:  47.93°N, 91.8°W
Report Text: KELO 221013Z AUTO 17007KT 10SM CLR 04/02 A3017 RMK AO2
Loading
Personal Weather Stations






























Interactive Weather Map
Tropical Storm Tracking
New forecast layout! Learn more

10-Day Weather Forecast

Advertisements
Track Severe Weather on mobile